Time;durP1;ratioP1;P1;durP2;ratioP2;P2;SDS_P1;SDS_P2;PMS_P1;PMS_P2;Temp;Humidity;BMP_temperature;BMP_pressure;BME280_temperature;BME280_humidity;BME280_pressure;Samples;Min_cycle;Max_cycle;Signal;HPM_P1;HPM_P2
2023/02/08 00:00:22;;;;;;;;;;;;;;;-1.60;100.00;103363.88;4920047;29;19911;-71
2023/02/08 00:02:48;;;;;;;;;;;;;;;-1.53;100.00;103372.50;4919239;29;19918;-70
2023/02/08 00:05:13;;;;;;;;;;;;;;;-1.49;100.00;103350.66;4919024;29;19918;-70
2023/02/08 00:07:38;;;;;;;;;;;;;;;-1.51;100.00;103352.44;4919622;29;19915;-70
2023/02/08 00:10:05;;;;;;;;;;;;;;;-1.47;100.00;103343.66;4901437;29;19925;-70
2023/02/08 00:12:31;;;;;;;;;;;;;;;-1.52;100.00;103340.25;4918756;29;19911;-71
2023/02/08 00:14:56;;;;;;;;;;;;;;;-1.46;100.00;103351.47;4918950;29;20297;-71
2023/02/08 00:17:21;;;;;;;;;;;;;;;-1.47;100.00;103344.50;4918639;29;19967;-69
2023/02/08 00:19:47;;;;;;;;;;;;;;;-1.44;100.00;103343.63;4917370;29;19911;-69
2023/02/08 00:22:12;;;;;;;;;;;;;;;-1.36;100.00;103342.63;4918222;29;19911;-70
2023/02/08 00:24:38;;;;;;;;;;;;;;;-1.34;100.00;103345.22;4918045;29;19927;-69
2023/02/08 00:27:03;;;;;;;;;;;;;;;-1.36;100.00;103326.94;4918279;29;19911;-68
2023/02/08 00:29:28;;;;;;;;;;;;;;;-1.32;100.00;103331.22;4918237;29;19911;-71
2023/02/08 00:31:54;;;;;;;;;;;;;;;-1.31;100.00;103326.88;4917993;29;19915;-70
2023/02/08 00:34:19;;;;;;;;;;;;;;;-1.31;100.00;103325.13;4918002;29;19911;-70
2023/02/08 00:36:44;;;;;;;;;;;;;;;-1.36;100.00;103326.06;4918003;29;19918;-71
2023/02/08 00:39:09;;;;;;;;;;;;;;;-1.35;100.00;103330.41;4917587;29;20375;-71
2023/02/08 00:41:35;;;;;;;;;;;;;;;-1.35;100.00;103338.25;4918078;29;20045;-69
2023/02/08 00:44:00;;;;;;;;;;;;;;;-1.37;100.00;103337.41;4918418;29;19922;-69
2023/02/08 00:46:26;;;;;;;;;;;;;;;-1.33;100.00;103337.34;4917881;29;19911;-69
2023/02/08 00:48:51;;;;;;;;;;;;;;;-1.33;100.00;103337.34;4916559;29;20005;-71
2023/02/08 00:51:16;;;;;;;;;;;;;;;-1.36;100.00;103336.53;4917649;29;20378;-71
2023/02/08 00:53:43;;;;;;;;;;;;;;;-1.41;100.00;103333.13;4917331;29;19918;-71
2023/02/08 00:56:09;;;;;;;;;;;;;;;-1.38;100.00;103333.09;4917135;29;20013;-70
2023/02/08 00:58:34;;;;;;;;;;;;;;;-1.36;100.00;103328.69;4917560;29;20446;-70
2023/02/08 01:01:00;;;;;;;;;;;;;;;-1.36;100.00;103345.25;4917483;29;19915;-71
2023/02/08 01:03:26;;;;;;;;;;;;;;;-1.33;100.00;103326.03;4917424;29;19970;-70
2023/02/08 01:05:53;;;;;;;;;;;;;;;-1.25;100.00;103339.84;4917008;29;19954;-71
2023/02/08 01:08:20;;;;;;;;;;;;;;;-1.28;100.00;103324.19;4916636;29;19969;-70
2023/02/08 01:10:46;;;;;;;;;;;;;;;-1.26;100.00;103320.66;4917704;29;19917;-72
2023/02/08 01:13:12;;;;;;;;;;;;;;;-1.26;100.00;103328.50;4917420;29;19967;-71
2023/02/08 01:15:37;;;;;;;;;;;;;;;-1.26;100.00;103343.34;4917191;29;19915;-70
2023/02/08 01:18:02;;;;;;;;;;;;;;;-1.22;100.00;103334.56;4917340;29;19918;-70
2023/02/08 01:20:29;;;;;;;;;;;;;;;-1.22;100.00;103331.94;4900041;29;19910;-70
2023/02/08 01:22:54;;;;;;;;;;;;;;;-1.26;100.00;103327.66;4917104;29;19933;-70
2023/02/08 01:25:20;;;;;;;;;;;;;;;-1.22;100.00;103318.88;4917223;29;20344;-69
2023/02/08 01:27:45;;;;;;;;;;;;;;;-1.19;100.00;103313.59;4917061;29;19911;-71
2023/02/08 01:30:11;;;;;;;;;;;;;;;-1.15;100.00;103314.44;4917057;29;19934;-71
2023/02/08 01:32:36;;;;;;;;;;;;;;;-1.12;100.00;103315.22;4916965;29;20355;-72
2023/02/08 01:35:01;;;;;;;;;;;;;;;-1.21;100.00;103317.97;4916802;29;19911;-70
2023/02/08 01:37:27;;;;;;;;;;;;;;;-1.28;100.00;103314.59;4916834;29;20378;-69
2023/02/08 01:39:52;;;;;;;;;;;;;;;-1.29;100.00;103322.47;4917058;29;19918;-70
2023/02/08 01:42:18;;;;;;;;;;;;;;;-1.30;100.00;103313.78;4916990;29;19911;-70
2023/02/08 01:45:01;;;;;;;;;;;;;;;-1.34;100.00;103319.06;4916859;29;19914;-72
2023/02/08 01:47:28;;;;;;;;;;;;;;;-1.36;100.00;103306.03;4899951;29;19911;-70
2023/02/08 01:49:54;;;;;;;;;;;;;;;-1.37;100.00;103300.81;4916718;29;19933;-70
2023/02/08 01:52:22;;;;;;;;;;;;;;;-1.41;100.00;103293.94;4916811;29;19911;-70
2023/02/08 01:54:52;;;;;;;;;;;;;;;-1.46;100.00;103288.75;4916637;29;20002;-69
2023/02/08 01:57:19;;;;;;;;;;;;;;;-1.40;100.00;103290.41;4884271;29;19910;-71
2023/02/08 01:59:47;;;;;;;;;;;;;;;-1.38;100.00;103280.81;4916500;29;20356;-71
2023/02/08 02:02:14;;;;;;;;;;;;;;;-1.46;100.00;103278.28;4916352;29;19911;-70
2023/02/08 02:04:40;;;;;;;;;;;;;;;-1.48;100.00;103274.84;4916602;29;19911;-70
2023/02/08 02:07:12;;;;;;;;;;;;;;;-1.46;100.00;103280.91;4916194;29;20298;-69
2023/02/08 02:09:44;;;;;;;;;;;;;;;-1.48;100.00;103279.19;4916405;29;19962;-68
2023/02/08 02:12:10;;;;;;;;;;;;;;;-1.45;100.00;103279.16;4916574;29;19911;-69
2023/02/08 02:14:37;;;;;;;;;;;;;;;-1.43;100.00;103272.19;4916621;29;19918;-69
2023/02/08 02:17:15;;;;;;;;;;;;;;;-1.37;100.00;103272.06;4918128;29;19911;-72
2023/02/08 02:19:59;;;;;;;;;;;;;;;-1.40;100.00;103265.16;4917984;29;19910;-70
2023/02/08 02:22:30;;;;;;;;;;;;;;;-1.39;100.00;103269.47;4915769;29;19914;-70
2023/02/08 02:24:59;;;;;;;;;;;;;;;-1.40;100.00;103254.69;4916079;29;19911;-71
2023/02/08 02:27:27;;;;;;;;;;;;;;;-1.36;100.00;103263.34;4915565;29;19918;-71
2023/02/08 02:30:11;;;;;;;;;;;;;;;-1.38;100.00;103265.13;4914855;29;19911;-72
2023/02/08 02:32:55;;;;;;;;;;;;;;;-1.40;100.00;103261.66;4916235;29;19915;-70
2023/02/08 02:35:49;;;;;;;;;;;;;;;-1.37;100.00;103261.63;4915864;29;20278;-71
2023/02/08 02:38:39;;;;;;;;;;;;;;;-1.33;100.00;103258.06;4848410;29;20404;-70
2023/02/08 02:44:17;;;;;;;;;;;;;;;-1.33;100.00;103252.81;4886011;29;19917;-70
2023/02/08 02:46:47;;;;;;;;;;;;;;;-1.36;100.00;103252.88;4915848;29;19922;-69
2023/02/08 02:49:16;;;;;;;;;;;;;;;-1.40;100.00;103256.44;4915794;29;19918;-69
2023/02/08 02:51:56;;;;;;;;;;;;;;;-1.39;100.00;103258.16;4898782;29;20253;-70
2023/02/08 02:54:33;;;;;;;;;;;;;;;-1.43;100.00;103257.34;4916057;29;20389;-71
2023/02/08 02:57:01;;;;;;;;;;;;;;;-1.38;100.00;103254.66;4915546;29;20363;-72
2023/02/08 02:59:27;;;;;;;;;;;;;;;-1.37;100.00;103261.63;4915784;29;20050;-69
2023/02/08 03:01:53;;;;;;;;;;;;;;;-1.34;100.00;103256.34;4915718;29;19911;-70
2023/02/08 03:04:39;;;;;;;;;;;;;;;-1.36;100.00;103250.28;4915516;29;19918;-71
2023/02/08 03:07:31;;;;;;;;;;;;;;;-1.34;100.00;103245.88;4876496;29;19937;-71
2023/02/08 03:10:26;;;;;;;;;;;;;;;-1.34;100.00;103253.72;4915635;29;20069;-69
2023/02/08 03:12:51;;;;;;;;;;;;;;;-1.38;100.00;103247.69;4916104;29;19915;-71
2023/02/08 03:15:17;;;;;;;;;;;;;;;-1.40;100.00;103240.75;4916082;29;19918;-70
2023/02/08 03:17:51;;;;;;;;;;;;;;;-1.40;100.00;103239.00;4916177;29;19911;-70
2023/02/08 03:20:24;;;;;;;;;;;;;;;-1.37;100.00;103245.94;4919497;29;19911;-70
2023/02/08 03:23:08;;;;;;;;;;;;;;;-1.35;100.00;103245.00;4920373;29;19933;-70
2023/02/08 03:25:43;;;;;;;;;;;;;;;-1.31;100.00;103245.81;4919641;29;19911;-72
2023/02/08 03:28:20;;;;;;;;;;;;;;;-1.33;100.00;103230.16;4920145;29;19946;-70
2023/02/08 03:30:50;;;;;;;;;;;;;;;-1.34;100.00;103235.41;4920748;29;19911;-71
2023/02/08 03:33:41;;;;;;;;;;;;;;;-1.31;100.00;103230.13;4924492;29;19914;-70
2023/02/08 03:36:19;;;;;;;;;;;;;;;-1.26;100.00;103237.00;4904183;29;19910;-69
2023/02/08 03:38:46;;;;;;;;;;;;;;;-1.28;100.00;103245.75;4927793;29;19915;-69
2023/02/08 03:41:14;;;;;;;;;;;;;;;-1.26;100.00;103241.38;4926497;29;19949;-70
2023/02/08 03:43:43;;;;;;;;;;;;;;;-1.36;100.00;103251.13;4925955;29;19911;-69
2023/02/08 03:46:36;;;;;;;;;;;;;;;-1.36;100.00;103260.72;4928296;29;19911;-69
2023/02/08 03:49:06;;;;;;;;;;;;;;;-1.35;100.00;103259.84;4920126;29;19927;-69
2023/02/08 03:51:33;;;;;;;;;;;;;;;-1.38;100.00;103250.28;4920774;29;19910;-71
2023/02/08 03:54:02;;;;;;;;;;;;;;;-1.36;100.00;103269.44;4919687;29;19939;-70
2023/02/08 03:56:36;;;;;;;;;;;;;;;-1.30;100.00;103273.69;4918765;29;19914;-70
2023/02/08 03:59:04;;;;;;;;;;;;;;;-1.30;100.00;103274.56;4919345;29;19965;-70
2023/02/08 04:01:38;;;;;;;;;;;;;;;-1.32;100.00;103276.34;4920189;29;19962;-71
2023/02/08 04:04:03;;;;;;;;;;;;;;;-1.31;100.00;103282.41;4919321;29;20275;-69
2023/02/08 04:06:29;;;;;;;;;;;;;;;-1.33;100.00;103286.81;4901379;29;19963;-68
2023/02/08 04:08:57;;;;;;;;;;;;;;;-1.34;100.00;103298.16;4922072;29;19918;-69
2023/02/08 04:11:22;;;;;;;;;;;;;;;-1.34;100.00;103300.78;4918885;29;19915;-70
2023/02/08 04:17:08;;;;;;;;;;;;;;;-1.31;100.00;103300.72;4919345;29;20020;-70
2023/02/08 04:19:34;;;;;;;;;;;;;;;-1.33;100.00;103300.75;4920770;29;19966;-70
2023/02/08 04:21:59;;;;;;;;;;;;;;;-1.30;100.00;103305.94;4921747;29;19990;-73
2023/02/08 04:24:25;;;;;;;;;;;;;;;-1.27;100.00;103305.88;4925496;29;19911;-66
2023/02/08 04:26:51;;;;;;;;;;;;;;;-1.25;100.00;103303.22;4920178;29;19911;-66
2023/02/08 04:29:16;;;;;;;;;;;;;;;-1.24;100.00;103304.97;4919692;29;20275;-70
2023/02/08 04:31:42;;;;;;;;;;;;;;;-1.27;100.00;103311.09;4920351;29;19911;-66
2023/02/08 04:34:07;;;;;;;;;;;;;;;-1.28;100.00;103304.16;4918986;29;19910;-66
2023/02/08 04:36:32;;;;;;;;;;;;;;;-1.26;100.00;103304.13;4917283;29;19911;-66
2023/02/08 04:38:58;;;;;;;;;;;;;;;-1.25;100.00;103298.00;4918093;29;20418;-66
2023/02/08 04:41:23;;;;;;;;;;;;;;;-1.23;100.00;103301.44;4917942;29;19911;-68
2023/02/08 04:44:01;;;;;;;;;;;;;;;-1.30;100.00;103305.94;4900796;29;19944;-67
2023/02/08 04:46:26;;;;;;;;;;;;;;;-1.35;100.00;103302.53;4917649;29;20359;-67
2023/02/08 04:48:51;;;;;;;;;;;;;;;-1.30;100.00;103302.44;4917736;29;20001;-66
2023/02/08 04:51:19;;;;;;;;;;;;;;;-1.24;100.00;103310.19;4917652;29;19915;-67
2023/02/08 04:53:44;;;;;;;;;;;;;;;-1.27;100.00;103305.00;4918298;29;19971;-66
2023/02/08 04:56:09;;;;;;;;;;;;;;;-1.29;100.00;103302.41;4917138;29;19910;-67
2023/02/08 04:58:35;;;;;;;;;;;;;;;-1.28;100.00;103292.81;4917109;29;19915;-67
2023/02/08 05:01:04;;;;;;;;;;;;;;;-1.26;100.00;103291.03;4917723;29;19967;-66
2023/02/08 05:03:29;;;;;;;;;;;;;;;-1.20;100.00;103292.69;4917361;29;20356;-67
2023/02/08 05:05:56;;;;;;;;;;;;;;;-1.20;100.00;103295.31;4917201;29;19911;-68
2023/02/08 05:08:21;;;;;;;;;;;;;;;-1.14;100.00;103296.09;4917507;29;19915;-67
2023/02/08 05:10:47;;;;;;;;;;;;;;;-1.03;100.00;103299.38;4917566;29;20422;-67
2023/02/08 05:13:12;;;;;;;;;;;;;;;-1.07;100.00;103292.47;4918192;29;19911;-66
2023/02/08 05:15:37;;;;;;;;;;;;;;;-1.07;100.00;103287.25;4917956;29;19911;-67
2023/02/08 05:18:03;;;;;;;;;;;;;;;-1.01;100.00;103281.03;4916931;29;19934;-67
2023/02/08 05:20:29;;;;;;;;;;;;;;;-0.98;100.00;103278.38;4917154;29;20022;-68
2023/02/08 05:22:54;;;;;;;;;;;;;;;-0.99;100.00;103277.50;4924585;29;19941;-67
2023/02/08 05:25:20;;;;;;;;;;;;;;;-1.03;100.00;103283.69;4918579;29;20363;-67
2023/02/08 05:27:45;;;;;;;;;;;;;;;-1.06;100.00;103278.50;4934113;29;20353;-66
2023/02/08 05:30:11;;;;;;;;;;;;;;;-1.07;100.00;103276.78;4933983;29;19918;-67
2023/02/08 05:32:36;;;;;;;;;;;;;;;-1.04;100.00;103287.19;4933856;29;19914;-67
2023/02/08 05:35:01;;;;;;;;;;;;;;;-1.01;100.00;103281.91;4916849;29;19911;-68
2023/02/08 05:37:28;;;;;;;;;;;;;;;-1.02;100.00;103282.78;4917141;29;19939;-66
2023/02/08 05:39:53;;;;;;;;;;;;;;;-1.02;100.00;103277.56;4933662;29;20041;-66
2023/02/08 05:42:18;;;;;;;;;;;;;;;-0.98;100.00;103279.22;4934045;29;19912;-67
2023/02/08 05:44:44;;;;;;;;;;;;;;;-0.93;100.00;103280.00;4934771;29;19914;-65
2023/02/08 05:47:09;;;;;;;;;;;;;;;-0.91;100.00;103271.28;4918464;29;19911;-66
2023/02/08 05:49:34;;;;;;;;;;;;;;;-0.93;100.00;103280.00;4935554;29;19911;-66
2023/02/08 05:52:00;;;;;;;;;;;;;;;-0.90;100.00;103278.22;4935754;29;19915;-66
2023/02/08 05:54:25;;;;;;;;;;;;;;;-0.96;100.00;103285.28;4935490;29;20062;-65
2023/02/08 05:56:53;;;;;;;;;;;;;;;-0.91;100.00;103276.50;4902623;29;19977;-66
2023/02/08 05:59:18;;;;;;;;;;;;;;;-0.91;100.00;103287.81;4935456;29;19911;-66
2023/02/08 06:01:44;;;;;;;;;;;;;;;-0.88;100.00;103286.91;4918837;29;19921;-65
2023/02/08 06:04:09;;;;;;;;;;;;;;;-0.89;100.00;103282.56;4935849;29;20316;-65
2023/02/08 06:06:35;;;;;;;;;;;;;;;-0.89;100.00;103280.81;4935216;29;19918;-66
2023/02/08 06:09:00;;;;;;;;;;;;;;;-0.85;100.00;103287.75;4935516;29;19915;-66
2023/02/08 06:11:26;;;;;;;;;;;;;;;-0.87;100.00;103286.88;4935412;29;19953;-66
2023/02/08 06:13:52;;;;;;;;;;;;;;;-0.85;100.00;103295.59;4935410;29;20351;-66
2023/02/08 06:16:17;;;;;;;;;;;;;;;-0.78;100.00;103294.59;4935140;29;19958;-67
2023/02/08 06:18:42;;;;;;;;;;;;;;;-0.80;100.00;103290.28;4935376;29;19910;-66
2023/02/08 06:21:08;;;;;;;;;;;;;;;-0.80;100.00;103283.28;4935378;29;19911;-65
2023/02/08 06:23:33;;;;;;;;;;;;;;;-0.79;100.00;103292.00;4936021;29;20342;-66
2023/02/08 06:25:59;;;;;;;;;;;;;;;-0.78;100.00;103285.88;4935547;29;19911;-67
2023/02/08 06:28:24;;;;;;;;;;;;;;;-0.79;100.00;103289.38;4934957;29;19914;-66
2023/02/08 06:30:50;;;;;;;;;;;;;;;-0.78;100.00;103284.13;4934999;29;20363;-66
2023/02/08 06:33:16;;;;;;;;;;;;;;;-0.76;100.00;103286.69;4934892;29;19911;-67
2023/02/08 06:35:50;;;;;;;;;;;;;;;-0.77;100.00;103290.22;4935056;29;19918;-66
2023/02/08 06:38:15;;;;;;;;;;;;;;;-0.79;100.00;103286.75;4935800;29;19922;-65
2023/02/08 06:40:41;;;;;;;;;;;;;;;-0.73;100.00;103297.09;4936352;29;19911;-66
2023/02/08 06:43:06;;;;;;;;;;;;;;;-0.67;100.00;103300.47;4935252;29;19911;-66
2023/02/08 06:45:32;;;;;;;;;;;;;;;-0.64;100.00;103297.78;4935066;29;19910;-67
2023/02/08 06:47:57;;;;;;;;;;;;;;;-0.59;100.00;103305.56;4934919;29;20525;-67
2023/02/08 06:50:22;;;;;;;;;;;;;;;-0.53;100.00;103305.47;4918119;29;19994;-67
2023/02/08 06:53:13;;;;;;;;;;;;;;;-0.51;100.00;103308.06;4936643;29;20267;-67
2023/02/08 06:55:39;;;;;;;;;;;;;;;-0.47;100.00;103305.34;4938815;29;19915;-66
2023/02/08 06:58:04;;;;;;;;;;;;;;;-0.49;100.00;103296.66;4921600;29;19919;-66
2023/02/08 07:00:29;;;;;;;;;;;;;;;-0.48;100.00;103293.16;4921558;29;19911;-65
2023/02/08 07:02:55;;;;;;;;;;;;;;;-0.47;100.00;103300.09;4938838;29;20005;-65
2023/02/08 07:05:20;;;;;;;;;;;;;;;-0.47;100.00;103299.25;4921582;29;19966;-67
2023/02/08 07:07:47;;;;;;;;;;;;;;;-0.51;100.00;103302.81;4938422;29;19914;-66
2023/02/08 07:10:13;;;;;;;;;;;;;;;-0.51;100.00;103297.59;4905451;29;20371;-66
2023/02/08 07:12:38;;;;;;;;;;;;;;;-0.50;100.00;103294.94;4938275;29;19910;-66
2023/02/08 07:15:04;;;;;;;;;;;;;;;-0.46;100.00;103300.97;4938462;29;19914;-67
2023/02/08 07:17:29;;;;;;;;;;;;;;;-0.46;100.00;103298.34;4938438;29;20377;-68
2023/02/08 07:19:55;;;;;;;;;;;;;;;-0.49;100.00;103299.28;4938534;29;19921;-72
2023/02/08 07:22:20;;;;;;;;;;;;;;;-0.47;100.00;103305.34;4905318;29;20374;-66
2023/02/08 07:24:46;;;;;;;;;;;;;;;-0.48;100.00;103298.38;4921199;29;20359;-68
2023/02/08 07:27:12;;;;;;;;;;;;;;;-0.47;100.00;103292.25;4921284;29;19918;-66
2023/02/08 07:29:37;;;;;;;;;;;;;;;-0.46;100.00;103295.72;4938108;29;19910;-67
2023/02/08 07:32:04;;;;;;;;;;;;;;;-0.45;100.00;103287.84;4938321;29;19918;-67
2023/02/08 07:34:31;;;;;;;;;;;;;;;-0.36;100.00;103282.41;4938061;29;20359;-67
2023/02/08 07:36:56;;;;;;;;;;;;;;;-0.30;100.00;103270.94;4937977;29;19918;-67
2023/02/08 07:39:21;;;;;;;;;;;;;;;-0.37;100.00;103267.59;4938002;29;19911;-65
2023/02/08 07:41:47;;;;;;;;;;;;;;;-0.31;100.00;103270.09;4937873;29;20005;-68
2023/02/08 07:44:12;;;;;;;;;;;;;;;-0.24;100.00;103267.38;4937932;29;20278;-67
2023/02/08 07:46:38;;;;;;;;;;;;;;;-0.22;100.00;103268.19;4937934;29;19982;-67
2023/02/08 07:49:03;;;;;;;;;;;;;;;-0.16;100.00;103263.69;4937917;29;19918;-71
2023/02/08 07:51:29;;;;;;;;;;;;;;;-0.22;100.00;103270.81;4937804;29;19933;-67
2023/02/08 07:54:20;;;;;;;;;;;;;;;-0.29;100.00;103274.44;4938075;29;20021;-66
2023/02/08 07:56:45;;;;;;;;;;;;;;;-0.30;100.00;103270.94;4937460;29;20434;-67
2023/02/08 07:59:10;;;;;;;;;;;;;;;-0.34;100.00;103270.16;4920706;29;19926;-66
2023/02/08 08:01:36;;;;;;;;;;;;;;;-0.35;100.00;103271.03;4905002;29;19914;-66
2023/02/08 08:04:01;;;;;;;;;;;;;;;-0.31;100.00;103280.56;4936777;29;19921;-66
2023/02/08 08:06:27;;;;;;;;;;;;;;;-0.28;100.00;103265.72;4937343;29;19915;-68
2023/02/08 08:08:52;;;;;;;;;;;;;;;-0.29;100.00;103266.56;4937309;29;20371;-67
2023/02/08 08:11:18;;;;;;;;;;;;;;;-0.23;100.00;103271.72;4937422;29;19914;-67
2023/02/08 08:13:44;;;;;;;;;;;;;;;-0.18;100.00;103275.94;4920668;29;19910;-69
2023/02/08 08:16:09;;;;;;;;;;;;;;;-0.15;100.00;103275.03;4937934;29;19911;-67
2023/02/08 08:18:34;;;;;;;;;;;;;;;-0.20;100.00;103269.03;4937277;29;19979;-66
2023/02/08 08:21:00;;;;;;;;;;;;;;;-0.22;100.00;103268.19;4937102;29;19917;-70
2023/02/08 08:23:27;;;;;;;;;;;;;;;-0.24;100.00;103280.47;4937151;29;19915;-68
2023/02/08 08:25:53;;;;;;;;;;;;;;;-0.25;100.00;103279.59;4937089;29;19985;-67
2023/02/08 08:28:18;;;;;;;;;;;;;;;-0.17;100.00;103274.19;4937140;29;20375;-64
2023/02/08 08:30:44;;;;;;;;;;;;;;;-0.13;100.00;103270.59;4936932;29;19910;-67
2023/02/08 08:33:10;;;;;;;;;;;;;;;-0.10;100.00;103278.41;4920050;29;19911;-67
2023/02/08 08:35:35;;;;;;;;;;;;;;;-0.08;100.00;103271.38;4936738;29;19922;-67
2023/02/08 08:38:00;;;;;;;;;;;;;;;-0.13;100.00;103281.09;4936349;29;19918;-68
2023/02/08 08:40:26;;;;;;;;;;;;;;;-0.10;100.00;103273.16;4935212;29;19910;-67
2023/02/08 08:42:51;;;;;;;;;;;;;;;-0.13;100.00;103276.72;4935834;29;19918;-66
2023/02/08 08:45:16;;;;;;;;;;;;;;;-0.14;100.00;103280.22;4937201;29;19917;-67
2023/02/08 08:47:42;;;;;;;;;;;;;;;-0.04;100.00;103284.38;4937077;29;19910;-67
2023/02/08 08:50:07;;;;;;;;;;;;;;;0.01;100.00;103291.28;4919850;29;19910;-66
2023/02/08 08:52:32;;;;;;;;;;;;;;;0.01;100.00;103278.19;4936710;29;19914;-68
2023/02/08 08:55:23;;;;;;;;;;;;;;;-0.01;100.00;103278.19;4937526;29;20323;-68
2023/02/08 08:57:51;;;;;;;;;;;;;;;0.04;100.00;103285.97;4936791;29;19919;-68
2023/02/08 09:00:16;;;;;;;;;;;;;;;0.09;100.00;103284.13;4936699;29;20004;-66
2023/02/08 09:02:41;;;;;;;;;;;;;;;0.07;100.00;103285.91;4936508;29;20363;-67
2023/02/08 09:05:07;;;;;;;;;;;;;;;0.14;100.00;103279.63;4936410;29;19917;-66
2023/02/08 09:07:32;;;;;;;;;;;;;;;0.20;100.00;103296.06;4919308;29;19977;-68
2023/02/08 09:09:58;;;;;;;;;;;;;;;0.21;100.00;103289.06;4936433;29;19914;-67
2023/02/08 09:12:23;;;;;;;;;;;;;;;0.24;100.00;103294.25;4936461;29;19961;-66
2023/02/08 09:14:49;;;;;;;;;;;;;;;0.22;100.00;103289.03;4918846;29;19911;-67
2023/02/08 09:17:14;;;;;;;;;;;;;;;0.24;100.00;103289.84;4935727;29;19914;-66
2023/02/08 09:19:41;;;;;;;;;;;;;;;0.35;100.00;103296.63;4936199;29;19911;-66
2023/02/08 09:22:07;;;;;;;;;;;;;;;0.39;100.00;103293.06;4937659;29;19966;-66
2023/02/08 09:24:32;;;;;;;;;;;;;;;0.42;100.00;103299.09;4938453;29;19911;-68
2023/02/08 09:26:57;;;;;;;;;;;;;;;0.39;100.00;103300.91;4936664;29;20387;-67
2023/02/08 09:29:23;;;;;;;;;;;;;;;0.40;100.00;103302.63;4919196;29;19910;-66
2023/02/08 09:31:48;;;;;;;;;;;;;;;0.40;100.00;103315.75;4920796;29;19917;-66
2023/02/08 09:34:13;;;;;;;;;;;;;;;0.49;100.00;103326.88;4936009;29;19997;-68
2023/02/08 09:36:39;;;;;;;;;;;;;;;0.53;100.00;103319.78;4935871;29;19910;-66
2023/02/08 09:39:23;;;;;;;;;;;;;;;0.55;100.00;103328.50;4919419;29;19921;-68
2023/02/08 09:42:03;;;;;;;;;;;;;;;0.57;100.00;103324.06;4936506;29;20363;-67
2023/02/08 09:44:36;;;;;;;;;;;;;;;0.51;100.00;103324.22;4936136;29;20367;-70
2023/02/08 09:47:19;;;;;;;;;;;;;;;0.48;100.00;103319.03;4936847;29;19917;-67
2023/02/08 09:49:56;;;;;;;;;;;;;;;0.43;100.00;103308.66;4936023;29;20005;-69
2023/02/08 09:52:26;;;;;;;;;;;;;;;0.36;100.00;103309.72;4936443;29;19916;-65
2023/02/08 09:54:53;;;;;;;;;;;;;;;0.36;100.00;103314.97;4938237;29;19910;-67
2023/02/08 09:57:25;;;;;;;;;;;;;;;0.38;100.00;103312.28;4937400;29;20021;-68
2023/02/08 10:00:10;;;;;;;;;;;;;;;0.40;100.00;103321.00;4936952;29;19911;-68
2023/02/08 10:02:36;;;;;;;;;;;;;;;0.48;100.00;103308.56;4935341;29;20323;-67
2023/02/08 10:05:05;;;;;;;;;;;;;;;0.48;100.00;103312.03;4917946;29;19911;-68
2023/02/08 10:07:32;;;;;;;;;;;;;;;0.49;100.00;103318.16;4918255;29;20021;-67
2023/02/08 10:09:58;;;;;;;;;;;;;;;0.49;100.00;103305.03;4918523;29;19918;-67
2023/02/08 10:12:40;;;;;;;;;;;;;;;0.51;100.00;103301.47;4935659;29;19910;-66
2023/02/08 10:15:23;;;;;;;;;;;;;;;0.52;100.00;103291.84;4935445;29;19914;-67
2023/02/08 10:17:49;;;;;;;;;;;;;;;0.58;100.00;103289.97;4935162;29;20398;-67
2023/02/08 10:20:37;;;;;;;;;;;;;;;0.59;100.00;103296.06;4935621;29;19911;-66
2023/02/08 10:23:03;;;;;;;;;;;;;;;0.63;100.00;103292.47;4916530;29;19910;-68
2023/02/08 10:25:52;;;;;;;;;;;;;;;0.67;100.00;103288.88;4935530;29;19910;-69
2023/02/08 10:28:20;;;;;;;;;;;;;;;0.67;100.00;103283.63;4929494;29;19952;-67
2023/02/08 10:31:15;;;;;;;;;;;;;;;0.72;100.00;103284.38;4918388;29;20309;-67
2023/02/08 10:33:40;;;;;;;;;;;;;;;0.83;100.00;103274.47;4926474;29;19918;-67
2023/02/08 10:36:12;;;;;;;;;;;;;;;0.99;100.00;103279.34;4935157;29;19911;-68
2023/02/08 10:38:39;;;;;;;;;;;;;;;1.03;100.00;103276.59;4917886;29;19911;-68
2023/02/08 10:41:05;;;;;;;;;;;;;;;1.11;100.00;103274.63;4935261;29;19966;-67
2023/02/08 10:43:30;;;;;;;;;;;;;;;1.09;100.00;103275.56;4936434;29;19911;-67
2023/02/08 10:46:03;;;;;;;;;;;;;;;1.13;100.00;103266.69;4936909;29;20298;-67
2023/02/08 10:48:47;;;;;;;;;;;;;;;1.21;100.00;103265.63;4920002;29;20387;-69
2023/02/08 10:51:15;;;;;;;;;;;;;;;1.24;100.00;103269.94;4935726;29;19910;-67
2023/02/08 10:53:40;;;;;;;;;;;;;;;1.23;100.00;103262.94;4935541;29;19911;-68
2023/02/08 10:56:11;;;;;;;;;;;;;;;1.21;100.00;103264.75;4934808;29;19915;-67
2023/02/08 10:58:42;;;;;;;;;;;;;;;1.22;100.00;103275.22;4935090;29;19914;-68
2023/02/08 11:01:08;;;;;;;;;;;;;;;1.17;100.00;103274.47;4935021;29;19918;-68
2023/02/08 11:03:36;;;;;;;;;;;;;;;1.12;100.00;103273.72;4934783;29;19910;-66
2023/02/08 11:06:02;;;;;;;;;;;;;;;1.06;100.00;103265.16;4917275;29;20329;-68
2023/02/08 11:08:34;;;;;;;;;;;;;;;1.01;100.00;103262.66;4934998;29;20021;-67
2023/02/08 11:11:02;;;;;;;;;;;;;;;1.01;100.00;103272.28;4935132;29;19918;-66
2023/02/08 11:13:53;;;;;;;;;;;;;;;1.05;100.00;103273.94;4935534;29;20279;-66
2023/02/08 11:16:21;;;;;;;;;;;;;;;1.07;100.00;103272.97;4933391;29;20012;-67
2023/02/08 11:18:47;;;;;;;;;;;;;;;1.08;100.00;103266.81;4934939;29;19911;-67
2023/02/08 11:21:23;;;;;;;;;;;;;;;0.96;100.00;103272.41;4934946;29;19989;-66
2023/02/08 11:23:53;;;;;;;;;;;;;;;0.89;100.00;103274.34;4934729;29;20446;-70
2023/02/08 11:26:30;;;;;;;;;;;;;;;0.84;100.00;103265.69;4934917;29;19981;-68
2023/02/08 11:28:59;;;;;;;;;;;;;;;0.83;100.00;103271.84;4934810;29;19922;-69
2023/02/08 11:31:24;;;;;;;;;;;;;;;0.87;100.00;103281.38;4934609;29;19918;-71
2023/02/08 11:34:08;;;;;;;;;;;;;;;0.89;100.00;103283.97;4917370;29;19911;-68
2023/02/08 11:36:34;;;;;;;;;;;;;;;0.84;100.00;103278.81;4934550;29;20360;-76
2023/02/08 11:39:00;;;;;;;;;;;;;;;0.83;100.00;103274.47;4918496;29;19911;-69
2023/02/08 11:41:26;;;;;;;;;;;;;;;0.88;100.00;103262.13;4937982;29;19922;-70
2023/02/08 11:44:00;;;;;;;;;;;;;;;0.83;100.00;103263.97;4938104;29;19918;-70
2023/02/08 11:46:27;;;;;;;;;;;;;;;0.86;100.00;103274.38;4937737;29;19914;-70
2023/02/08 11:48:54;;;;;;;;;;;;;;;0.95;100.00;103281.19;4920961;29;19918;-67
2023/02/08 11:51:37;;;;;;;;;;;;;;;0.93;100.00;103281.22;4937756;29;19914;-67
2023/02/08 11:54:03;;;;;;;;;;;;;;;0.89;100.00;103289.22;4937450;29;20378;-71
2023/02/08 11:56:30;;;;;;;;;;;;;;;0.88;100.00;103280.50;4937866;29;19910;-70
2023/02/08 11:58:56;;;;;;;;;;;;;;;0.95;100.00;103277.69;4938153;29;20005;-67
2023/02/08 12:01:24;;;;;;;;;;;;;;;0.98;100.00;103277.63;4937667;29;20013;-69
2023/02/08 12:03:50;;;;;;;;;;;;;;;1.01;100.00;103277.53;4938365;29;19958;-68
2023/02/08 12:06:19;;;;;;;;;;;;;;;1.09;100.00;103283.44;4938516;29;20278;-66
2023/02/08 12:08:45;;;;;;;;;;;;;;;1.11;100.00;103294.75;4937646;29;19969;-66
2023/02/08 12:11:15;;;;;;;;;;;;;;;1.10;100.00;103287.78;4937578;29;19921;-68
2023/02/08 12:13:40;;;;;;;;;;;;;;;1.11;100.00;103289.50;4937632;29;20263;-66
2023/02/08 12:16:15;;;;;;;;;;;;;;;1.15;100.00;103285.91;4937134;29;19934;-66
2023/02/08 12:18:40;;;;;;;;;;;;;;;1.11;100.00;103300.00;4936972;29;19917;-67
2023/02/08 12:21:15;;;;;;;;;;;;;;;1.07;100.00;103295.75;4937099;29;20341;-68
2023/02/08 12:23:48;;;;;;;;;;;;;;;1.07;100.00;103293.97;4937159;29;20350;-67
2023/02/08 12:26:13;;;;;;;;;;;;;;;1.10;100.00;103287.78;4937467;29;19959;-68
2023/02/08 12:29:04;;;;;;;;;;;;;;;1.19;100.00;103285.81;4937768;29;19914;-67
2023/02/08 12:31:32;;;;;;;;;;;;;;;1.24;100.00;103280.41;4937707;29;19918;-66
2023/02/08 12:34:02;;;;;;;;;;;;;;;1.31;100.00;103291.63;4937568;29;20248;-71
2023/02/08 12:36:46;;;;;;;;;;;;;;;1.34;100.00;103281.03;4936716;29;19911;-67
2023/02/08 12:41:56;;;;;;;;;;;;;;;1.34;100.00;103276.63;4936860;29;19921;-67
2023/02/08 12:44:53;;;;;;;;;;;;;;;1.36;100.00;103281.84;4936657;29;19911;-68
2023/02/08 12:47:24;;;;;;;;;;;;;;;1.34;100.00;103281.03;4914927;29;19918;-67